Tiempo atmosférico en la estación meteorológica de Aldeanueva de Serrezuela, Segovia (1135 m.)



Fecha
DESCASC
Temp. máxima en grados centígrados (hora)
DESCASC
Temp. mínima en grados centígrados (hora)
DESCASC
Temp. media en grados centígrados
DESCASC
Racha de viento máxima en m/sg (hora)
DESCASC
Velocidad máxima media en intervalos de 10 minutos(hora)
DESCASC
Precipitaciones diarias en mm
DESCASC
Precipitaciones de 00:00 a 06:00 en mm
DESCASC
Precipitaciones de 06:00 a 12:00 en mm
DESCASC
Precipitaciones de 12:00 a 18:00 en mm
DESCASC
Precipitaciones de 18:00 a 24:00 en mm
DESCASC
18-01-2018 11.2 (17:10) 2.8 (00:10) 7 3.33 (14:20) 2.22 (17:50) 0 0 0 0 0
17-01-2018 7.6 (15:30) 3 (20:30) 5.3 11.67 (00:10) 8.61 (05:10) 0 0 0 0 0
16-01-2018 7.3 (15:00) 2.9 (03:10) 5.1 14.72 (19:30) 10.28 (01:00) 0.2 0 0 0.2 0
15-01-2018 3.9 (15:40) -2.4 (04:50) 0.8 14.17 (22:20) 10.28 (22:20) 0 0 0 0 0
14-01-2018 0.8 (00:00) -1.4 (-00:0) -0.3 9.72 (01:30) 6.39 (02:00) 1 0.6 0.4 0 0
13-01-2018 3.5 (12:30) 0 (00:00) 1.8 11.11 (18:00) 7.5 (20:10) 3 0 0 2 1
12-01-2018 4.5 (15:20) -1.8 (-00:0) 1.4 7.5 (00:10) 4.72 (00:10) 0 0 0 0 0
11-01-2018 2.6 (16:40) -0.5 (-00:0) 1 17.22 (02:40) 12.5 (02:40) 0 0 0 0 0
10-01-2018 3.2 (16:20) -0.3 (00:00) 1.5 19.17 (16:20) 12.5 (17:20) 2.6 1 0.2 1.4 0
09-01-2018 3.5 (12:40) -3.2 (-00:0) 0.1 10.83 (13:50) 7.5 (13:50) 2 0 0 0.4 1.6
08-01-2018 1.8 (13:30) -4.5 (-00:0) -1.4 5 (08:10) 4.17 (08:20) 11 0 2.2 8.8 0
07-01-2018 0 (12:50) -4.1 (-00:0) -2 10.83 (20:00) 7.5 (20:00) 7.6 0 0.4 7 0.2
06-01-2018 0.5 (04:20) -1.6 (-00:0) -0.6 7.78 (16:30) 4.44 (16:30) 0.4 0 0.2 0.2 0
05-01-2018 7.8 (12:00) 0.1 (00:00) 4 17.5 (12:00) 11.39 (12:30) 11.8 0 0 2.8 9
04-01-2018 8.6 (13:40) 7.6 (19:10) 8.1 15.83 (13:00) 11.67 (13:00) -- 0 0 0 --
03-01-2018 9.6 (15:50) 8.4 (00:00) 9 15 (19:10) 9.72 (02:10) 0.4 0.2 0.2 0 0
02-01-2018 8.5 (23:30) 4.2 (00:00) 6.3 16.94 (01:50) 12.5 (01:40) 0.6 0 0 0 0.6
01-01-2018 5.7 (21:00) 0.5 (00:00) 3.1 18.33 (11:10) 12.78 (11:30) 0.4 0 0 0.4 0
31-12-2017 8.1 (14:40) 0.6 (00:00) 4.4 18.89 (12:50) 13.33 (12:50) 6.2 0 0 5.6 0.6
30-12-2017 10.5 (15:40) 5.9 (00:00) 8.2 13.06 (02:30) 9.44 (02:30) 0.2 0.2 0 0 0
29-12-2017 9.6 (16:40) 4.1 (00:00) 6.9 15 (08:50) 10 (08:40) 2.4 0 2 0.4 0
28-12-2017 8.1 (16:10) 2.1 (00:00) 5.1 16.67 (13:00) 11.39 (13:00) 3.8 0.6 2.6 0.6 0
27-12-2017 4.7 (02:10) 0.7 (00:00) 2.7 27.5 (02:30) 17.22 (02:30) 3 2.6 0 0 0.4
26-12-2017 4.7 (23:50) 0.3 (00:00) 2.5 27.78 (23:50) 16.67 (23:50) 8.6 0 0 0.8 7.8
25-12-2017 9 (13:40) 3 (00:00) 6 13.06 (22:20) 8.61 (22:30) 2.2 0 0 0 2.2
24-12-2017 9.9 (15:10) 3.7 (00:00) 6.8 6.67 (01:50) 4.72 (01:40) 0 0 0 0 0

Gráficas

Temp. máximas Temp. mínimas Temp. medias Precipitaciones Rachas de viento máximas Velocidades máximas media en intervalos de 10 minutos

Datos horarios

Fecha y hora oficial Temperatura (ºC) Velocidad del viento (km/h) Dirección del viento Racha (km/h) Dirección de racha Precipitación (mm) Presión (hPa) Tendencia (hPa) Humedad (%)
2018-01-22 23:00:00 4 2 Sur 5 Sur 0 -- -- 97
2018-01-22 22:00:00 3.5 2 Sur -- -- 0 -- -- 100
2018-01-22 21:00:00 3.1 3 Sudeste 5 Este 0 -- -- 98
2018-01-22 20:00:00 2.9 3 Este 6 Norte 0 -- -- 98
2018-01-22 19:00:00 4.3 2 Norte 9 Norte 0 -- -- 94
2018-01-22 18:00:00 5.4 3 Noroeste 13 Oeste 0 -- -- 93
2018-01-22 17:00:00 5.7 7 Oeste 15 Oeste 0 -- -- 93
2018-01-22 16:00:00 5.9 10 Oeste 19 Oeste 0 -- -- 93
2018-01-22 15:00:00 5.6 10 Oeste 20 Sudoeste 0 -- -- 98
2018-01-22 14:00:00 5.1 12 Oeste 23 Oeste 0 -- -- 100
2018-01-22 13:00:00 4.6 14 Oeste 25 Sudoeste 0 -- -- 100
2018-01-22 12:00:00 4.8 15 Sudoeste 25 Sudoeste 0 -- -- 100
2018-01-22 11:00:00 4 21 Sudoeste 30 Sudoeste 0 -- -- 100
2018-01-22 10:00:00 3.9 16 Sudoeste 25 Sudoeste 0 -- -- 100
2018-01-22 09:00:00 4 16 Sudoeste 26 Sudoeste 0 -- -- 100
2018-01-22 08:00:00 4.1 17 Sudoeste 28 Sudoeste 0 -- -- 100
2018-01-22 07:00:00 4.1 17 Sudoeste 28 Sudoeste 0 -- -- 100
2018-01-22 06:00:00 3.8 14 Sudoeste 26 Sudoeste 0 -- -- 100
2018-01-22 05:00:00 3.5 17 Sudoeste 24 Sudoeste 0 -- -- 100
2018-01-22 04:00:00 3.5 11 Sudoeste 21 Sudoeste 0 -- -- 100
2018-01-22 03:00:00 3.6 14 Sudoeste 20 Sudoeste 0 -- -- 100
2018-01-22 02:00:00 3.7 10 Sudoeste 21 Sudoeste 0 -- -- 100
2018-01-22 01:00:00 4.2 14 Sudoeste 26 Sudoeste 0 -- -- 100
2018-01-22 00:00:00 4.3 18 Sudoeste 27 Sudoeste 0 -- -- 100
2018-01-21 23:00:00 4.3 17 Sudoeste 26 Sudoeste 0 -- -- 100
2018-01-21 22:00:00 4.2 15 Sudoeste 21 Sudoeste 0 -- -- 100
2018-01-21 21:00:00 4.6 8 Sur 20 Sudoeste 0 -- -- 100
2018-01-21 20:00:00 5.1 13 Sudoeste 19 Sudoeste 0 -- -- 100
2018-01-21 19:00:00 5.4 13 Sudoeste 18 Sudoeste 0 -- -- 100
2018-01-21 18:00:00 5.6 13 Sudoeste 21 Sudoeste 0 -- -- 100
2018-01-21 17:00:00 5.7 12 Sudoeste 22 Oeste 0 -- -- 100
2018-01-21 16:00:00 5.5 15 Oeste 25 Sudoeste 0 -- -- 100
2018-01-21 15:00:00 5.4 19 Sudoeste 30 Sudoeste 0 -- -- 100
2018-01-21 14:00:00 5.1 19 Sudoeste 30 Oeste 0 -- -- 100
2018-01-21 13:00:00 4.8 21 Sudoeste 31 Sudoeste 0 -- -- 100
2018-01-21 12:00:00 4.8 22 Sudoeste 31 Sudoeste 0 -- -- 100
2018-01-21 11:00:00 4.4 23 Sudoeste 35 Sudoeste 0 -- -- 100
2018-01-21 10:00:00 4.4 21 Sudoeste 30 Sudoeste 0 -- -- 100
2018-01-21 09:00:00 4.3 18 Sudoeste 28 Sudoeste 0 -- -- 100
2018-01-21 08:00:00 4.3 13 Oeste 29 Sudoeste 0 -- -- 100
2018-01-21 07:00:00 4.3 18 Sudoeste 34 Sudoeste 0 -- -- 100
2018-01-21 06:00:00 4.1 24 Oeste 35 Sudoeste 0 -- -- 100
2018-01-21 05:00:00 4.6 25 Sudoeste 37 Sudoeste 0 -- -- 100
2018-01-21 04:00:00 4.7 28 Sudoeste 40 Sudoeste 0 -- -- 100
2018-01-21 03:00:00 4.7 30 Sudoeste 46 Sudoeste 0 -- -- 100
2018-01-21 02:00:00 4.6 27 Sudoeste 44 Sudoeste 0 -- -- 100
2018-01-21 01:00:00 4.7 28 Sudoeste 41 Sudoeste 0 -- -- 100
2018-01-21 00:00:00 4.8 30 Sudoeste 46 Sudoeste 0 -- -- 98
2018-01-20 23:00:00 5.3 28 Sudoeste 44 Sudoeste 0 -- -- 95
2018-01-20 22:00:00 5.4 29 Sudoeste 41 Sudoeste 0 -- -- 93
2018-01-20 21:00:00 6 30 Sudoeste 48 Sudoeste 0 -- -- 88
2018-01-20 20:00:00 6.6 32 Sudoeste 44 Sudoeste 0 -- -- 81
2018-01-20 19:00:00 7 27 Sudoeste 36 Sudoeste 0 -- -- 77
2018-01-20 18:00:00 8.1 26 Oeste 36 Oeste 0 -- -- 74
2018-01-20 17:00:00 9.5 25 Oeste 44 Oeste 0 -- -- 65
2018-01-20 16:00:00 9.4 28 Oeste 40 Oeste 0 -- -- 65
2018-01-20 15:00:00 9.3 28 Sudoeste 40 Sudoeste 0 -- -- 62
2018-01-20 14:00:00 8.1 29 Sudoeste 39 Sudoeste 0 -- -- 59
2018-01-20 13:00:00 7.1 26 Sudoeste 37 Sudoeste 0 -- -- 64
2018-01-20 12:00:00 5.3 28 Sudoeste 44 Sudoeste 0 -- -- 68
2018-01-20 11:00:00 4.6 28 Sudoeste 40 Sudoeste 0 -- -- 75
2018-01-20 10:00:00 3.3 26 Sudoeste 40 Sudoeste 0 -- -- 83
2018-01-20 09:00:00 2 22 Sudoeste 32 Sudoeste 0 -- -- 96
2018-01-20 08:00:00 2.2 21 Sudoeste 33 Sudoeste 0 -- -- 91
2018-01-20 07:00:00 1.9 23 Sudoeste 33 Sudoeste 0 -- -- 95
2018-01-20 06:00:00 1.8 19 Sudoeste 27 Sudoeste 0 -- -- 97
2018-01-20 05:00:00 2.2 16 Sudoeste 25 Sudoeste 0 -- -- 96
2018-01-20 04:00:00 2.1 13 Sudoeste 19 Sudoeste 0 -- -- 96
2018-01-20 03:00:00 2.7 12 Sudoeste 15 Sur 0 -- -- 98
2018-01-20 02:00:00 2.1 10 Sudoeste 12 Sur 0 -- -- 100
2018-01-20 01:00:00 2.6 8 Sudoeste 11 Sudoeste 0 -- -- 98
2018-01-20 00:00:00 3.4 3 Sudoeste 6 Sudoeste 0 -- -- 98
2018-01-19 23:00:00 3.3 7 Sudoeste 12 Sudoeste 0 -- -- 97
2018-01-19 22:00:00 4 11 Sudoeste 15 Sudoeste 0 -- -- 94
2018-01-19 21:00:00 4.4 9 Sudoeste 14 Sudoeste 0 -- -- 94
2018-01-19 20:00:00 4.1 10 Sudoeste 13 Sudoeste 0 -- -- 90
2018-01-19 19:00:00 5.2 7 Sudoeste 15 Noroeste 0 -- -- 86
2018-01-19 18:00:00 7.3 10 Noroeste 21 Oeste 0 -- -- 80
2018-01-19 17:00:00 7.9 12 Oeste 18 Oeste 0 -- -- 79
2018-01-19 16:00:00 8.7 13 Oeste 25 Noroeste 0 -- -- 75
2018-01-19 15:00:00 8.6 14 Noroeste 24 Noroeste 0 -- -- 75
2018-01-19 14:00:00 8.2 10 Oeste 19 Sudoeste 0 -- -- 76
2018-01-19 13:00:00 7.2 10 Noroeste 18 Oeste 0 -- -- 80
2018-01-19 12:00:00 7.2 10 Noroeste 14 Noroeste 0 -- -- 81
2018-01-19 11:00:00 6.7 4 Oeste 8 Oeste 0 -- -- 84
2018-01-19 10:00:00 5.1 5 Sur 7 Sur 0 -- -- 93
2018-01-19 09:00:00 2.2 5 Sur 9 Sur 0 -- -- 98
2018-01-19 08:00:00 2.4 3 Sur 15 Norte 0 -- -- 93
2018-01-19 07:00:00 4.5 7 Noroeste 10 Noroeste 0 -- -- 84
2018-01-19 06:00:00 5.2 3 Sudoeste 5 Sur 0 -- -- 82
2018-01-19 05:00:00 5.1 3 Sur 6 Sudeste 0 -- -- 82
2018-01-19 04:00:00 4.4 4 Nordeste 5 Nordeste 0 -- -- 79
2018-01-19 03:00:00 5.6 0 Calma 5 Sudoeste 0 -- -- 76
2018-01-19 02:00:00 5.8 3 Sudoeste 8 Sudoeste 0 -- -- 74
2018-01-19 01:00:00 5.6 7 Sudoeste 9 Sudoeste 0 -- -- 74
2018-01-19 00:00:00 6.2 4 Sudoeste 9 Sudoeste 0 -- -- 71
2018-01-18 23:00:00 6 8 Sudoeste 10 Sudoeste 0 -- -- 72
2018-01-18 22:00:00 6.7 5 Sur 7 Sudoeste 0 -- -- 68
2018-01-18 21:00:00 6.6 3 Sudoeste 6 Sudoeste 0 -- -- 69
2018-01-18 20:00:00 6.4 3 Oeste 7 Sudoeste 0 -- -- 68
2018-01-18 19:00:00 6.8 2 Sur 9 Noroeste 0 -- -- 70
2018-01-18 18:00:00 9.2 7 Noroeste 12 Oeste 0 -- -- 64
2018-01-18 17:00:00 11.1 5 Sudoeste 9 Norte 0 -- -- 54
2018-01-18 16:00:00 10 5 Norte 11 Norte 0 -- -- 64
2018-01-18 15:00:00 10.7 5 Norte 12 Noroeste 0 -- -- 61
2018-01-18 14:00:00 10.8 6 Noroeste 12 Oeste 0 -- -- 45
2018-01-18 13:00:00 10 4 Noroeste 10 Norte 0 -- -- 53
2018-01-18 12:00:00 9.4 6 Norte 10 Norte 0 -- -- 63
2018-01-18 11:00:00 8.7 4 Sudoeste 8 Sudoeste 0 -- -- 54
2018-01-18 10:00:00 5.8 8 Sur 9 Sur 0 -- -- 70
2018-01-18 09:00:00 3.6 3 Este 5 Este 0 -- -- 73
2018-01-18 08:00:00 4.8 5 Sudoeste 7 Sudoeste 0 -- -- 64
2018-01-18 07:00:00 4.3 2 Sur 4 Sur 0 -- -- 71
2018-01-18 06:00:00 4.1 3 Oeste 5 Sudoeste 0 -- -- 67
2018-01-18 05:00:00 4.4 2 Sudoeste 9 Sur 0 -- -- 63
2018-01-18 04:00:00 4 6 Sur 8 Sur 0 -- -- 76
2018-01-18 03:00:00 3.7 2 Sur 4 Sur 0 -- -- 85
2018-01-18 02:00:00 3.7 3 Sur 7 Sur 0 -- -- 85
2018-01-18 01:00:00 3.3 5 Sudoeste 8 Sudoeste 0 -- -- 86
2018-01-18 00:00:00 3 6 Sudoeste 9 Sudoeste 0 -- -- 86
2018-01-17 23:00:00 3.6 4 Sudoeste 6 Sudoeste 0 -- -- 85
2018-01-17 22:00:00 4 2 Sur 4 Sur 0 -- -- 84
2018-01-17 21:00:00 4.1 0 Calma 6 Sudeste 0 -- -- 85
2018-01-17 20:00:00 3.2 2 Este 7 Sudeste 0 -- -- 87
2018-01-17 19:00:00 4.5 2 Sur 6 Sudeste 0 -- -- 83
2018-01-17 18:00:00 6.1 4 Noroeste 14 Noroeste 0 -- -- 77
2018-01-17 17:00:00 7.3 7 Noroeste 16 Norte 0 -- -- 71
2018-01-17 16:00:00 7.2 9 Norte 20 Oeste 0 -- -- 78
2018-01-17 15:00:00 6.9 9 Noroeste 22 Oeste 0 -- -- 82
2018-01-17 14:00:00 6.7 12 Noroeste 20 Noroeste 0 -- -- 82
2018-01-17 13:00:00 5.9 9 Oeste 17 Oeste 0 -- -- 92
2018-01-17 12:00:00 4.9 10 Oeste 20 Oeste 0 -- -- 100
2018-01-17 11:00:00 4.1 13 Oeste 24 Oeste 0 -- -- 100
2018-01-17 10:00:00 3.7 13 Oeste 32 Oeste 0 -- -- 100
2018-01-17 09:00:00 4.2 20 Oeste 41 Oeste 0 -- -- 100
2018-01-17 08:00:00 4.3 24 Oeste 40 Oeste 0 -- -- 100
2018-01-17 07:00:00 4.7 22 Oeste 37 Oeste 0 -- -- 100
2018-01-17 06:00:00 4.9 27 Sudoeste 42 Oeste 0 -- -- 100
2018-01-17 05:00:00 5.2 30 Sudoeste 42 Oeste 0 -- -- 100
2018-01-17 04:00:00 5.5 21 Sudoeste 39 Sudoeste 0 -- -- 100
2018-01-17 03:00:00 5.6 28 Sudoeste 40 Sudoeste 0 -- -- 100
2018-01-17 02:00:00 5.9 27 Sudoeste 41 Sudoeste 0 -- -- 100
2018-01-17 01:00:00 6.2 29 Sudoeste 42 Sudoeste 0 -- -- 100
2018-01-17 00:00:00 6.3 30 Oeste 42 Oeste 0 -- -- 100
2018-01-16 23:00:00 6.5 28 Oeste 46 Oeste 0 -- -- 100
2018-01-16 22:00:00 6.9 30 Oeste 50 Oeste 0 -- -- 100
2018-01-16 21:00:00 6.8 30 Oeste 53 Oeste 0 -- -- 100
2018-01-16 20:00:00 6.8 28 Sudoeste 53 Sudoeste 0 -- -- 100
2018-01-16 19:00:00 6.7 27 Sudoeste 46 Sudoeste 0 -- -- 100
2018-01-16 18:00:00 6.8 22 Sudoeste 42 Sudoeste 0 -- -- 100
2018-01-16 17:00:00 7.1 24 Sudoeste 39 Sudoeste 0 -- -- 100
2018-01-16 16:00:00 6.9 22 Sudoeste 39 Oeste 0 -- -- 100
2018-01-16 15:00:00 7.3 25 Sudoeste 42 Oeste 0 -- -- 100
2018-01-16 14:00:00 6.2 28 Sudoeste 47 Sudoeste 0 -- -- 100
2018-01-16 13:00:00 5.8 34 Sudoeste 46 Sudoeste 0.2 -- -- 100
2018-01-16 12:00:00 5.4 29 Sudoeste 43 Sudoeste 0 -- -- 100
2018-01-16 11:00:00 4.9 27 Sudoeste 41 Oeste 0 -- -- 100
2018-01-16 10:00:00 4.3 26 Sudoeste 42 Sudoeste 0 -- -- 100
2018-01-16 09:00:00 3.9 27 Sudoeste 42 Sudoeste 0 -- -- 100
2018-01-16 08:00:00 3.7 26 Sudoeste 44 Sudoeste 0 -- -- 100
2018-01-16 07:00:00 3.2 27 Sudoeste 43 Sudoeste 0 -- -- 100
2018-01-16 06:00:00 3 30 Sudoeste 46 Sudoeste 0 -- -- 99
2018-01-16 05:00:00 3 30 Sudoeste 46 Sudoeste 0 -- -- 96
2018-01-16 04:00:00 3 31 Sudoeste 48 Sudoeste 0 -- -- 92
2018-01-16 03:00:00 3 31 Sudoeste 46 Sudoeste 0 -- -- 87
2018-01-16 02:00:00 3.1 35 Sudoeste 52 Sudoeste 0 -- -- 85
2018-01-16 01:00:00 3.2 37 Sudoeste 50 Sudoeste 0 -- -- 80
2018-01-16 00:00:00 3.2 30 Sudoeste 45 Sudoeste 0 -- -- 79
2018-01-15 23:00:00 3.1 30 Sudoeste 51 Sudoeste 0 -- -- 79
2018-01-15 22:00:00 2.8 29 Sudoeste 42 Sudoeste 0 -- -- 84
2018-01-15 21:00:00 3.1 31 Sudoeste 43 Sudoeste 0 -- -- 83
2018-01-15 20:00:00 3 26 Sudoeste 37 Sudoeste 0 -- -- 82
2018-01-15 19:00:00 2.8 19 Sudoeste 35 Sudoeste 0 -- -- 83
2018-01-15 18:00:00 2.9 20 Sudoeste 31 Sudoeste 0 -- -- 83
2018-01-15 17:00:00 3.4 18 Sudoeste 32 Sudoeste 0 -- -- 81
2018-01-15 16:00:00 3.6 18 Sudoeste 27 Sudoeste 0 -- -- 81
2018-01-15 15:00:00 3.1 20 Sudoeste 27 Sudoeste 0 -- -- 85
2018-01-15 14:00:00 3.1 15 Sudoeste 24 Sudoeste 0 -- -- 85
2018-01-15 13:00:00 2.2 14 Sudoeste 22 Sudoeste 0 -- -- 88
2018-01-15 12:00:00 1.1 14 Sudoeste 19 Sudoeste 0 -- -- 91
2018-01-15 11:00:00 0.2 12 Sudoeste 21 Sudoeste 0 -- -- 95
2018-01-15 10:00:00 -1.5 12 Sudoeste 17 Sudoeste 0 -- -- 98
2018-01-15 09:00:00 -1.8 10 Sudoeste 14 Sudoeste 0 -- -- 98
2018-01-15 08:00:00 -2.1 9 Sudoeste 14 Sudoeste 0 -- -- 98
2018-01-15 07:00:00 -2.2 10 Sudoeste 14 Sudoeste 0 -- -- 99
2018-01-15 06:00:00 -2.1 10 Sudoeste 13 Sudoeste 0 -- -- 100
2018-01-15 05:00:00 -2.3 10 Sudoeste 11 Sudoeste 0 -- -- 100
2018-01-15 04:00:00 -1.8 4 Sudoeste 8 Sudoeste 0 -- -- 100
2018-01-15 03:00:00 -1.6 5 Sudoeste 9 Oeste 0 -- -- 99
2018-01-15 02:00:00 -1.2 4 Sudoeste 8 Sur 0 -- -- 97
2018-01-15 01:00:00 -1.8 3 Sudoeste 8 Sur 0 -- -- 98
2018-01-15 00:00:00 -1.4 3 Sudoeste 9 Sudoeste 0 -- -- 99
2018-01-14 23:00:00 -1.1 4 Sudoeste 8 Sudoeste 0 -- -- 100
2018-01-14 22:00:00 -1.3 4 Sudoeste 7 Sudoeste 0 -- -- 100
2018-01-14 21:00:00 -0.9 4 Sudoeste 8 Sudoeste 0 -- -- 100
2018-01-14 20:00:00 -0.5 3 Oeste 5 Noroeste 0 -- -- 100
2018-01-14 19:00:00 -0.1 4 Norte 9 Norte 0 -- -- 100
2018-01-14 18:00:00 0.2 3 Noroeste 8 Noroeste 0 -- -- 100
2018-01-14 17:00:00 0.2 4 Oeste 10 Oeste 0 -- -- 100
2018-01-14 16:00:00 0 3 Oeste 17 Oeste 0 -- -- 100
2018-01-14 15:00:00 0 10 Oeste 18 Oeste 0 -- -- 100
2018-01-14 14:00:00 0.1 10 Sudoeste 16 Oeste 0 -- -- 100
2018-01-14 13:00:00 0 8 Oeste 12 Sudoeste 0 -- -- 100
2018-01-14 12:00:00 -0.1 7 Oeste 14 Oeste 0.2 -- -- 100
2018-01-14 11:00:00 -0.1 0 Calma 6 Oeste 0.2 -- -- 100
2018-01-14 10:00:00 -0.4 0 Calma -- -- 0 -- -- 100
2018-01-14 09:00:00 -0.4 0 Calma 22 Oeste 0 -- -- 100
2018-01-14 08:00:00 -0.4 17 Oeste 26 Oeste 0 -- -- 100
2018-01-14 07:00:00 -0.3 18 Oeste 27 Oeste 0 -- -- 100
2018-01-14 06:00:00 -0.2 18 Oeste 30 Oeste 0 -- -- 100
2018-01-14 05:00:00 -0.1 20 Sudoeste 29 Oeste 0.2 -- -- 100
2018-01-14 04:00:00 0.4 18 Sudoeste 26 Sudoeste 0 -- -- 100
2018-01-14 03:00:00 0.3 19 Sudoeste 33 Sudoeste 0 -- -- 100
2018-01-14 02:00:00 0.5 23 Sudoeste 35 Sudoeste 0 -- -- 100
2018-01-14 01:00:00 0.7 18 Oeste 33 Oeste 0.4 -- -- 100
2018-01-14 00:00:00 0.8 20 Sudoeste 29 Sudoeste 0.4 -- -- 100
2018-01-13 23:00:00 0.7 15 Oeste 24 Oeste 0 -- -- 100
2018-01-13 22:00:00 0.4 19 Oeste 33 Oeste 0.2 -- -- 100
2018-01-13 21:00:00 0.5 22 Oeste 39 Oeste 0.4 -- -- 100
2018-01-13 20:00:00 0.5 26 Sudoeste 36 Sudoeste 0 -- -- 100
2018-01-13 19:00:00 0 21 Sudoeste 35 Sudoeste 0 -- -- 100
2018-01-13 18:00:00 0.1 25 Sudoeste 40 Sudoeste 0.2 -- -- 100
2018-01-13 17:00:00 0.3 22 Sudoeste 31 Sudoeste 0.4 -- -- 100
2018-01-13 16:00:00 0.8 17 Sudoeste 28 Sudoeste 0.2 -- -- 97
2018-01-13 15:00:00 1.1 6 Sur 20 Sur 0.4 -- -- 95
2018-01-13 14:00:00 1 5 Sur 26 Oeste 0.8 -- -- 96
2018-01-13 13:00:00 2.4 23 Oeste 33 Sudoeste 0 -- -- 78
2018-01-13 12:00:00 3.4 4 Sudoeste 10 Sudoeste 0 -- -- 67
2018-01-13 11:00:00 3.1 4 Sudeste 10 Sur 0 -- -- 71
2018-01-13 10:00:00 1.9 9 Sudoeste 15 Sudoeste 0 -- -- 72
2018-01-13 09:00:00 0.9 6 Sur 12 Sudoeste 0 -- -- 78
2018-01-13 08:00:00 0.9 5 Sudoeste 7 Sur 0 -- -- 76
2018-01-13 07:00:00 0.9 3 Sudoeste 7 Sudeste 0 -- -- 73
2018-01-13 06:00:00 1.3 0 Calma 8 Noroeste 0 -- -- 69
2018-01-13 05:00:00 2 4 Sudoeste 9 Sudoeste 0 -- -- 61
2018-01-13 04:00:00 2.3 4 Sudeste 12 Sur 0 -- -- 63
2018-01-13 03:00:00 2.3 6 Sudoeste 10 Sudoeste 0 -- -- 64
2018-01-13 02:00:00 2.3 8 Sudoeste 11 Sur 0 -- -- 69
2018-01-13 01:00:00 2.1 9 Sur 17 Sur 0 -- -- 72
2018-01-13 00:00:00 2.1 14 Sur 19 Sur 0 -- -- 81
2018-01-12 23:00:00 2.3 13 Sudoeste 20 Sudoeste 0 -- -- 85
2018-01-12 22:00:00 1.8 9 Sudoeste 13 Sudoeste 0 -- -- 86
2018-01-12 21:00:00 1.7 10 Oeste 16 Oeste 0 -- -- 86
2018-01-12 20:00:00 1.8 8 Sudoeste 12 Sudoeste 0 -- -- 94
2018-01-12 19:00:00 1.9 8 Sur 9 Sur 0 -- -- 95
2018-01-12 18:00:00 2.7 4 Oeste 6 Sudoeste 0 -- -- 92
2018-01-12 17:00:00 3.7 3 Oeste 8 Oeste 0 -- -- 81
2018-01-12 16:00:00 4.4 3 Oeste 9 Oeste 0 -- -- 77
2018-01-12 15:00:00 4.4 2 Noroeste 9 Norte 0 -- -- 81
2018-01-12 14:00:00 4.2 4 Norte 7 Oeste 0 -- -- 80
2018-01-12 13:00:00 3.7 4 Oeste 12 Noroeste 0 -- -- 82
2018-01-12 12:00:00 3 4 Sudoeste 12 Sudoeste 0 -- -- 88
2018-01-12 11:00:00 1 5 Sur 16 Sudoeste 0 -- -- 99
2018-01-12 10:00:00 -0.6 6 Sudoeste 11 Sudoeste 0 -- -- 100
2018-01-12 09:00:00 -1.7 5 Sudoeste 18 Sudoeste 0 -- -- 100
2018-01-12 08:00:00 -1.6 13 Sudoeste 20 Sudoeste 0 -- -- 100
2018-01-12 07:00:00 -1.5 10 Sudoeste 24 Sudoeste 0 -- -- 100
2018-01-12 06:00:00 -1.1 16 Sudoeste 26 Sudoeste 0 -- -- 100
2018-01-12 05:00:00 -1.8 14 Sudoeste 20 Sudoeste 0 -- -- 99
2018-01-12 04:00:00 -0.8 11 Sudoeste 14 Sudoeste 0 -- -- 97
2018-01-12 03:00:00 -0.4 5 Sudoeste 13 Sudoeste 0 -- -- 96
2018-01-12 02:00:00 0.1 10 Sudoeste 21 Sudoeste 0 -- -- 95
2018-01-12 01:00:00 0.5 13 Sudoeste 27 Sudoeste 0 -- -- 95
2018-01-12 00:00:00 0.4 17 Sudoeste 28 Sudoeste 0 -- -- 96
2018-01-11 23:00:00 0.6 20 Sudoeste 39 Sudoeste 0 -- -- 95
2018-01-11 22:00:00 1.1 26 Oeste 41 Oeste 0 -- -- 94
2018-01-11 21:00:00 1.4 27 Sudoeste 39 Sudoeste 0 -- -- 94
2018-01-11 20:00:00 1.6 26 Sudoeste 41 Sudoeste 0 -- -- 91
2018-01-11 19:00:00 1.8 23 Oeste 40 Oeste 0 -- -- 83
2018-01-11 18:00:00 2.2 27 Oeste 39 Oeste 0 -- -- 81
2018-01-11 17:00:00 2.6 22 Oeste 37 Sudoeste 0 -- -- 81
2018-01-11 16:00:00 2.1 23 Oeste 44 Oeste 0 -- -- 81
2018-01-11 15:00:00 2.3 30 Oeste 46 Oeste 0 -- -- 80
2018-01-11 14:00:00 1.3 26 Oeste 40 Oeste 0 -- -- 89
2018-01-11 13:00:00 0.9 26 Oeste 42 Oeste 0 -- -- 93
2018-01-11 12:00:00 0.3 26 Oeste 48 Oeste 0 -- -- 100
2018-01-11 11:00:00 -0.1 21 Oeste 39 Oeste 0 -- -- 100
2018-01-11 10:00:00 -0.4 22 Oeste 39 Oeste 0 -- -- 100
2018-01-11 09:00:00 -0.5 26 Oeste 41 Oeste 0 -- -- 100
2018-01-11 08:00:00 -0.4 23 Oeste 45 Sudoeste 0 -- -- 100
2018-01-11 07:00:00 -0.4 28 Oeste 49 Oeste 0 -- -- 100
2018-01-11 06:00:00 -0.4 36 Oeste 50 Oeste 0 -- -- 100
2018-01-11 05:00:00 0 32 Oeste 53 Sudoeste 0 -- -- 100
2018-01-11 04:00:00 0.2 37 Oeste 58 Sudoeste 0 -- -- 100
2018-01-11 03:00:00 0 39 Sudoeste 62 Sudoeste 0 -- -- 100
2018-01-11 02:00:00 -0.1 36 Sudoeste 58 Sudoeste 0 -- -- 100
2018-01-11 01:00:00 -0.2 31 Sudoeste 57 Sudoeste 0 -- -- 100
2018-01-11 00:00:00 0.1 39 Sudoeste 57 Oeste 0 -- -- 100
2018-01-10 23:00:00 -0.3 26 Sudoeste 40 Oeste 0 -- -- 100
2018-01-10 22:00:00 0.1 23 Oeste 45 Oeste 0 -- -- 100
2018-01-10 21:00:00 0.6 25 Oeste 40 Sudoeste 0 -- -- 100
2018-01-10 20:00:00 0.9 25 Sudoeste 49 Sudoeste 0 -- -- 100
2018-01-10 19:00:00 1.9 37 Oeste 63 Oeste 0 -- -- 100
2018-01-10 18:00:00 2.3 37 Sudoeste 66 Oeste 0.2 -- -- 100
2018-01-10 17:00:00 2.5 39 Sudoeste 69 Sudoeste 0.8 -- -- 99
2018-01-10 16:00:00 3 42 Sudoeste 62 Sudoeste 0.2 -- -- 96
2018-01-10 15:00:00 3 34 Sudoeste 53 Sudoeste 0.2 -- -- 100
2018-01-10 14:00:00 2.7 29 Sudoeste 50 Sudoeste 0 -- -- 100
2018-01-10 13:00:00 2.5 27 Sudoeste 44 Sudoeste 0 -- -- 100
2018-01-10 12:00:00 2.3 29 Sudoeste 45 Sudoeste 0 -- -- 100
2018-01-10 11:00:00 1.5 23 Sudoeste 44 Sudoeste 0 -- -- 100
2018-01-10 10:00:00 1.4 30 Sudoeste 41 Sudoeste 0 -- -- 100
2018-01-10 09:00:00 1.4 24 Sudoeste 40 Oeste 0 -- -- 100
2018-01-10 08:00:00 1.6 28 Sudoeste 38 Oeste 0.2 -- -- 100
2018-01-10 07:00:00 1.6 22 Sudoeste 34 Sudoeste 0 -- -- 100
2018-01-10 06:00:00 1.8 22 Sudoeste 32 Sudoeste 0 -- -- 100
2018-01-10 05:00:00 1.9 21 Sudoeste 32 Sudoeste 0.2 -- -- 100
2018-01-10 04:00:00 1.7 19 Sudoeste 32 Sudoeste 0 -- -- 100
2018-01-10 03:00:00 2.1 22 Sudoeste 36 Sudoeste 0.2 -- -- 100
2018-01-10 02:00:00 2 22 Sudoeste 36 Sudoeste 0.6 -- -- 100
2018-01-10 01:00:00 2.1 25 Sudoeste 36 Sudoeste 0 -- -- 100
2018-01-10 00:00:00 2.1 23 Sudoeste 36 Sudoeste 0.4 -- -- 100
2018-01-09 23:00:00 2.2 22 Sudoeste 38 Sudoeste 0.2 -- -- 100
2018-01-09 22:00:00 2.2 25 Sudoeste 39 Sudoeste 0.2 -- -- 100
2018-01-09 21:00:00 2 22 Sudoeste 33 Sudoeste 0.4 -- -- 100
2018-01-09 20:00:00 1.9 17 Sudoeste 32 Sudoeste 0.2 -- -- 99
2018-01-09 19:00:00 1.6 15 Sudoeste 27 Sudoeste 0.2 -- -- 99
2018-01-09 18:00:00 1.1 12 Sudoeste 21 Sudoeste 0.2 -- -- 97
2018-01-09 17:00:00 1.7 14 Sudoeste 27 Sudoeste 0 -- -- 87
2018-01-09 16:00:00 1.7 13 Sudoeste 38 Sudoeste 0 -- -- 80
2018-01-09 15:00:00 1 21 Sur 36 Sudoeste 0.2 -- -- 91
2018-01-09 14:00:00 1.3 23 Sudoeste 39 Sudoeste 0 -- -- 76
2018-01-09 13:00:00 3.3 17 Sudoeste 27 Oeste 0 -- -- 51
2018-01-09 12:00:00 2.3 14 Sudoeste 23 Sudoeste 0 -- -- 57
2018-01-09 11:00:00 0.6 17 Sudoeste 25 Sur 0 -- -- 70
2018-01-09 10:00:00 -0.6 17 Sudoeste 29 Sudoeste 0 -- -- 81
2018-01-09 09:00:00 -1.6 19 Sudoeste 30 Sur 0 -- -- 91
2018-01-09 08:00:00 -2 22 Sudoeste 32 Sudoeste 0 -- -- 94
2018-01-09 07:00:00 -2.5 18 Sudoeste 28 Sudoeste 0 -- -- 90
2018-01-09 06:00:00 -2.1 14 Sudoeste 19 Sur 0 -- -- 77
2018-01-09 05:00:00 -2.5 15 Sur 21 Sudoeste 0 -- -- 81
2018-01-09 04:00:00 -3 10 Sudoeste 18 Sur 0 -- -- 83
2018-01-09 03:00:00 -2.2 13 Sur 19 Sur 0 -- -- 78
2018-01-09 02:00:00 -2.3 12 Sur 18 Sur 0 -- -- 79
2018-01-09 01:00:00 -2.2 14 Sur 19 Sur 0 -- -- 83
2018-01-09 00:00:00 -2.4 11 Sur 14 Sudoeste 0 -- -- 81
2018-01-08 23:00:00 -2.4 10 Sudoeste 13 Sudoeste 0 -- -- 83
2018-01-08 22:00:00 -1.9 9 Sudoeste 13 Sudoeste 0 -- -- 80
2018-01-08 21:00:00 -1.8 12 Sur 16 Sudoeste 0 -- -- 85
2018-01-08 20:00:00 -1.9 11 Sudoeste 15 Sudoeste 0 -- -- 87
2018-01-08 19:00:00 -1.7 7 Sudoeste 15 Sur 0 -- -- 87
2018-01-08 18:00:00 -0.4 6 Sur 10 Sur 0 -- -- 89
2018-01-08 17:00:00 0.5 6 Oeste 10 Oeste 0.2 -- -- 83
2018-01-08 16:00:00 0.8 3 Norte 9 Oeste 1.2 -- -- 84
2018-01-08 15:00:00 0.1 3 Sudoeste 17 Oeste 1.2 -- -- 86
2018-01-08 14:00:00 0.9 5 Noroeste 15 Noroeste 2.6 -- -- 84
2018-01-08 13:00:00 1.4 6 Sur 8 Sur 3.6 -- -- 88
2018-01-08 12:00:00 0.6 2 Sudeste 12 Sudeste 1.8 -- -- 92
2018-01-08 11:00:00 -0.6 10 Sudeste 14 Este 0.4 -- -- 84
2018-01-08 10:00:00 -1.9 8 Este 14 Este 0 -- -- 91
2018-01-08 09:00:00 -3.3 9 Este 18 Este 0 -- -- 94
2018-01-08 08:00:00 -4.3 14 Este 17 Este 0 -- -- 97
2018-01-08 07:00:00 -3 6 Este 11 Sudeste 0 -- -- 93
2018-01-08 06:00:00 -2.9 6 Sudeste 10 Sur 0 -- -- 93
2018-01-08 05:00:00 -3 8 Sudeste 18 Este 0 -- -- 94
2018-01-08 04:00:00 -4 14 Sudeste 17 Sudeste 0 -- -- 95
2018-01-08 03:00:00 -3.7 6 Sudeste 15 Este 0 -- -- 97
2018-01-08 02:00:00 -4 13 Este 16 Este 0 -- -- 97
2018-01-08 01:00:00 -3.8 12 Este 16 Este 0 -- -- 97
2018-01-08 00:00:00 -3.9 10 Este 15 Este 0 -- -- 98
2018-01-07 23:00:00 -3.6 8 Nordeste 13 Nordeste 0 -- -- 99
2018-01-07 22:00:00 -2.4 10 Sur 28 Sudeste 0.2 -- -- 99
2018-01-07 21:00:00 -1.9 21 Sudeste 34 Sudeste 0 -- -- 100
2018-01-07 20:00:00 -1.5 27 Sudeste 39 Sudeste 0 -- -- 100
2018-01-07 19:00:00 -1.3 18 Este 32 Este 0 -- -- 100
2018-01-07 18:00:00 -1.2 12 Este 31 Este 0.2 -- -- 100
2018-01-07 17:00:00 -0.6 17 Este 32 Este 0.8 -- -- 100
2018-01-07 16:00:00 -0.1 16 Este 29 Este 2.2 -- -- 100
2018-01-07 15:00:00 0 12 Este 28 Sudeste 1.8 -- -- 100
2018-01-07 14:00:00 0 13 Este 24 Este 1 -- -- 100
2018-01-07 13:00:00 0 5 Nordeste 8 Nordeste 1 -- -- 100
2018-01-07 12:00:00 -0.1 5 Este 8 Nordeste 0.4 -- -- 100
2018-01-07 11:00:00 -0.3 0 Calma -- -- 0 -- -- 100
2018-01-07 10:00:00 -0.7 0 Calma -- -- 0 -- -- 100
2018-01-07 09:00:00 -1 0 Calma -- -- 0 -- -- 100
2018-01-07 08:00:00 -1.1 0 Calma -- -- 0 -- -- 100
2018-01-07 07:00:00 -1.2 0 Calma -- -- 0 -- -- 100
2018-01-07 06:00:00 -1.2 0 Calma -- -- 0 -- -- 100
2018-01-07 05:00:00 -1.3 0 Calma -- -- 0 -- -- 100
2018-01-07 04:00:00 -1.4 0 Calma -- -- 0 -- -- 100
2018-01-07 03:00:00 -1.4 0 Calma -- -- 0 -- -- 100
2018-01-07 02:00:00 -1.4 0 Calma -- -- 0 -- -- 100
2018-01-07 01:00:00 -1.4 0 Calma -- -- 0 -- -- 100
2018-01-07 00:00:00 -1.5 0 Calma -- -- 0 -- -- 100
2018-01-06 23:00:00 -1.5 0 Calma -- -- 0 -- -- 100
2018-01-06 22:00:00 -1.5 0 Calma -- -- 0 -- -- 100
2018-01-06 21:00:00 -1.3 0 Calma -- -- 0 -- -- 100
2018-01-06 20:00:00 -1.3 0 Calma 24 Norte 0 -- -- 100
2018-01-06 19:00:00 -1.3 11 Norte 23 Norte 0 -- -- 100
2018-01-06 18:00:00 -1.3 12 Norte 23 Norte 0 -- -- 100
2018-01-06 17:00:00 -1.1 15 Norte 28 Norte 0 -- -- 100
2018-01-06 16:00:00 -1 13 Norte 25 Norte 0.2 -- -- 100
2018-01-06 15:00:00 -1.1 14 Norte 24 Norte 0 -- -- 100
2018-01-06 14:00:00 -0.9 13 Norte 24 Norte 0 -- -- 100
2018-01-06 13:00:00 -0.7 12 Norte 18 Norte 0 -- -- 100
2018-01-06 12:00:00 -0.5 7 Nordeste 13 Nordeste 0 -- -- 100
2018-01-06 11:00:00 -0.6 8 Nordeste 15 Norte 0 -- -- 100
2018-01-06 10:00:00 -0.4 3 Norte 12 Norte 0 -- -- 100
2018-01-06 09:00:00 -0.3 0 Calma -- -- 0 -- -- 100
2018-01-06 08:00:00 -0.1 0 Calma -- -- 0 -- -- 100
2018-01-06 07:00:00 -0.1 0 Calma 3 Este 0.2 -- -- 100
2018-01-06 06:00:00 0.1 0 Calma 9 Este 0 -- -- 100
2018-01-06 05:00:00 0.4 6 Este 11 Este 0 -- -- 100
2018-01-06 04:00:00 0.4 0 Calma 0 Calma 0 -- -- 100
2018-01-06 03:00:00 0.3 0 Calma -- -- 0 -- -- 100
2018-01-06 02:00:00 0.3 0 Calma -- -- 0 -- -- 100
2018-01-06 01:00:00 0.2 0 Calma -- -- 0 -- -- 100
2018-01-06 00:00:00 0.1 0 Calma 8 Noroeste 0 -- -- 100
2018-01-05 23:00:00 0.4 9 Noroeste 17 Oeste 1.4 -- -- 100
2018-01-05 22:00:00 2.3 12 Oeste 17 Oeste 2.2 -- -- 100
2018-01-05 21:00:00 3.9 11 Oeste 17 Oeste 2 -- -- 100
2018-01-05 20:00:00 4.5 12 Oeste 20 Oeste 1.8 -- -- 100
2018-01-05 19:00:00 4.8 7 Oeste 23 Oeste 1.6 -- -- 100
2018-01-05 18:00:00 5.2 22 Oeste 32 Sudoeste 1.8 -- -- 98
2018-01-05 17:00:00 5.7 13 Sudoeste 26 Sudoeste 0.4 -- -- 100
2018-01-05 16:00:00 5.7 15 Sudoeste 29 Sudoeste 0.4 -- -- 98
2018-01-05 15:00:00 5.8 19 Sudoeste 39 Sudoeste 0 -- -- 95
2018-01-05 14:00:00 5.6 27 Sudoeste 60 Sudoeste 0.2 -- -- 96
2018-01-05 13:00:00 6.3 38 Sudoeste 63 Oeste 0 -- -- 94
2018-01-05 12:00:00 7.8 39 Sudoeste 63 Sudoeste 0 -- -- 76
2018-01-05 11:00:00 7.2 36 Sudoeste 52 Sur 0 -- -- 76
2018-01-05 10:00:00 6.6 32 Sudoeste 51 Sudoeste 0 -- -- 81
2018-01-05 09:00:00 5.8 35 Sudoeste 58 Sudoeste 0 -- -- 86
2018-01-05 08:00:00 5.6 34 Sudoeste 53 Sudoeste 0 -- -- 91
2018-01-05 07:00:00 5.5 33 Sudoeste 53 Sudoeste 0 -- -- 94
2018-01-05 06:00:00 5.3 21 Sudoeste 36 Sudoeste 0 -- -- 94
2018-01-05 05:00:00 5.5 27 Sudoeste 42 Sudoeste 0 -- -- 95
2018-01-05 04:00:00 6.1 27 Sudoeste 45 Sudoeste 0 -- -- 97
2018-01-05 03:00:00 6.1 24 Sudoeste 44 Sudoeste 0 -- -- 96
2018-01-05 02:00:00 6.7 31 Sudoeste 49 Sudoeste 0 -- -- 94
2018-01-05 01:00:00 7.3 32 Sudoeste 47 Sudoeste 0 -- -- 93
2018-01-05 00:00:00 7.7 32 Sudoeste 46 Sudoeste 0 -- -- 90
2018-01-04 23:00:00 7.7 27 Sudoeste 45 Sudoeste 0 -- -- 89
2018-01-04 22:00:00 7.8 28 Sudoeste 45 Sudoeste 0 -- -- 88
2018-01-04 21:00:00 7.8 30 Sudoeste 45 Sudoeste 0 -- -- 87
2018-01-04 20:00:00 7.7 28 Sudoeste 43 Sudoeste 0 -- -- 88
2018-01-04 19:00:00 7.7 30 Sudoeste -- -- -- -- -- 89
2018-01-04 18:00:00 7.7 27 Sudoeste 43 Sudoeste 0 -- -- 90
2018-01-04 17:00:00 8 26 Sudoeste 49 Sudoeste 0 -- -- 86
2018-01-04 16:00:00 8.1 38 Sudoeste 56 Sudoeste 0 -- -- 89
2018-01-04 15:00:00 8.5 33 Sudoeste 48 Oeste 0 -- -- 87
2018-01-04 14:00:00 8.3 38 Sudoeste 57 Sudoeste 0 -- -- 86
2018-01-04 13:00:00 8.2 42 Sudoeste 57 Sudoeste 0 -- -- 86
2018-01-04 12:00:00 8.2 35 Sudoeste 51 Sudoeste 0 -- -- 95
2018-01-04 11:00:00 8.1 34 Sudoeste 48 Sudoeste 0 -- -- 98
2018-01-04 10:00:00 7.8 31 Sudoeste 46 Sudoeste 0 -- -- 100
2018-01-04 09:00:00 7.7 27 Sudoeste 47 Sudoeste 0 -- -- 100
2018-01-04 08:00:00 7.9 31 Sudoeste 47 Sudoeste 0 -- -- 100
2018-01-04 07:00:00 8 36 Sudoeste 50 Sudoeste 0 -- -- 100
2018-01-04 06:00:00 8 32 Sudoeste 42 Sudoeste 0 -- -- 100
2018-01-04 05:00:00 8 28 Sudoeste 44 Sudoeste 0 -- -- 100
2018-01-04 04:00:00 8.1 28 Sudoeste 41 Sudoeste 0 -- -- 100
2018-01-04 03:00:00 8.1 27 Sudoeste 42 Sudoeste 0 -- -- 100
2018-01-04 02:00:00 8.3 30 Sudoeste 46 Sudoeste 0 -- -- 100
2018-01-04 01:00:00 8.4 30 Sudoeste 48 Sudoeste 0 -- -- 100
2018-01-04 00:00:00 8.5 32 Sudoeste 46 Sudoeste 0 -- -- 100
2018-01-03 23:00:00 8.9 30 Sudoeste 46 Sudoeste 0 -- -- 100
2018-01-03 22:00:00 9.2 32 Sudoeste 51 Sudoeste 0 -- -- 100
2018-01-03 21:00:00 9.4 26 Sudoeste 49 Sudoeste 0 -- -- 100
2018-01-03 20:00:00 9.5 28 Sudoeste 54 Sudoeste 0 -- -- 100
2018-01-03 19:00:00 9.4 24 Sudoeste 44 Oeste 0 -- -- 100
2018-01-03 18:00:00 9.4 27 Oeste 44 Oeste 0 -- -- 100
2018-01-03 17:00:00 9.6 24 Sudoeste 41 Oeste 0 -- -- 100
2018-01-03 16:00:00 9.6 27 Sudoeste 43 Sudoeste 0 -- -- 100
2018-01-03 15:00:00 9.4 30 Oeste 43 Oeste 0 -- -- 100
2018-01-03 14:00:00 9.1 30 Sudoeste 44 Sudoeste 0 -- -- 100
2018-01-03 13:00:00 8.9 32 Sudoeste 48 Sudoeste 0 -- -- 100
2018-01-03 12:00:00 8.8 29 Oeste 45 Sudoeste 0 -- -- 100
2018-01-03 11:00:00 8.6 27 Sudoeste 42 Sudoeste 0.2 -- -- 100
2018-01-03 10:00:00 8.5 27 Sudoeste 42 Sudoeste 0 -- -- 100
2018-01-03 09:00:00 8.5 28 Sudoeste 44 Sudoeste 0 -- -- 100
2018-01-03 08:00:00 8.4 29 Sudoeste 43 Sudoeste 0 -- -- 100
2018-01-03 07:00:00 8.4 28 Sudoeste 45 Oeste 0 -- -- 100
2018-01-03 06:00:00 8.5 32 Sudoeste 49 Sudoeste 0 -- -- 100
2018-01-03 05:00:00 8.6 29 Sudoeste 45 Oeste 0 -- -- 100
2018-01-03 04:00:00 8.5 32 Sudoeste 48 Sudoeste 0 -- -- 100
2018-01-03 03:00:00 8.6 31 Sudoeste 51 Oeste 0 -- -- 100
2018-01-03 02:00:00 8.5 33 Sudoeste 48 Sudoeste 0.2 -- -- 100
2018-01-03 01:00:00 8.4 26 Sudoeste 39 Sudoeste 0 -- -- 100
2018-01-03 00:00:00 8.5 30 Sudoeste 46 Oeste 0 -- -- 100
2018-01-02 23:00:00 8.3 27 Sudoeste 46 Sudoeste 0.2 -- -- 100
2018-01-02 22:00:00 8.1 27 Sudoeste 47 Sudoeste 0 -- -- 100
2018-01-02 21:00:00 7.8 28 Sudoeste 40 Sudoeste 0 -- -- 100
2018-01-02 20:00:00 7.7 28 Sudoeste 44 Sudoeste 0.2 -- -- 100
2018-01-02 19:00:00 7.4 29 Sudoeste 43 Sudoeste 0.2 -- -- 100
2018-01-02 18:00:00 7.3 28 Sudoeste 40 Sudoeste 0 -- -- 100
2018-01-02 17:00:00 7 27 Sudoeste 46 Sudoeste 0 -- -- 100
2018-01-02 16:00:00 6.7 31 Sudoeste 45 Sudoeste 0 -- -- 100
2018-01-02 15:00:00 6.5 34 Sudoeste 52 Sudoeste 0 -- -- 100
2018-01-02 14:00:00 6.2 35 Sudoeste 48 Sudoeste 0 -- -- 100
2018-01-02 13:00:00 6.3 29 Sudoeste 51 Sudoeste 0 -- -- 100
2018-01-02 12:00:00 5.8 30 Sudoeste 44 Oeste 0 -- -- 100
2018-01-02 11:00:00 4.9 32 Sudoeste 51 Sudoeste 0 -- -- 100
2018-01-02 10:00:00 4.3 37 Sudoeste 53 Sudoeste 0 -- -- 100
2018-01-02 09:00:00 4.2 34 Sudoeste 54 Oeste 0 -- -- 100
2018-01-02 08:00:00 4.2 37 Sudoeste 50 Sudoeste 0 -- -- 100
2018-01-02 07:00:00 4.2 32 Sudoeste 49 Sudoeste 0 -- -- 100
2018-01-02 06:00:00 4.3 35 Sudoeste 54 Oeste 0 -- -- 100
2018-01-02 05:00:00 4.2 35 Sudoeste 55 Sudoeste 0 -- -- 100
2018-01-02 04:00:00 4.3 36 Sudoeste 53 Sudoeste 0 -- -- 100
2018-01-02 03:00:00 4.2 39 Sudoeste 54 Sudoeste 0 -- -- 100
2018-01-02 02:00:00 4.4 37 Sudoeste 61 Sudoeste 0 -- -- 100
2018-01-02 01:00:00 4.8 36 Sudoeste 54 Sudoeste 0 -- -- 100
2018-01-02 00:00:00 5 36 Sudoeste 54 Sudoeste 0 -- -- 100
2018-01-01 23:00:00 5.4 39 Sudoeste 60 Sudoeste 0 -- -- 100
2018-01-01 22:00:00 5.6 38 Sudoeste 61 Oeste 0 -- -- 100
2018-01-01 21:00:00 5.7 37 Sudoeste 53 Sudoeste 0 -- -- 100
2018-01-01 20:00:00 5.5 38 Sudoeste 58 Sudoeste 0 -- -- 100
2018-01-01 19:00:00 5.3 36 Sudoeste 59 Sudoeste 0 -- -- 100
2018-01-01 18:00:00 4.9 40 Sudoeste 64 Sudoeste 0 -- -- 100
2018-01-01 17:00:00 5 43 Sudoeste 62 Sudoeste 0.2 -- -- 100
2018-01-01 16:00:00 4.4 36 Sudoeste 57 Sudoeste 0.2 -- -- 100
2018-01-01 15:00:00 4 42 Sudoeste 63 Sudoeste 0 -- -- 95
2018-01-01 14:00:00 4 39 Sudoeste 61 Sudoeste 0 -- -- 92
2018-01-01 13:00:00 3.8 41 Sudoeste 65 Sudoeste 0 -- -- 88
2018-01-01 12:00:00 3.5 46 Sudoeste 66 Sudoeste 0 -- -- 87
2018-01-01 11:00:00 2.9 43 Sudoeste 62 Sudoeste 0 -- -- 89
2018-01-01 10:00:00 1.9 38 Sudoeste 55 Sudoeste 0 -- -- 92
2018-01-01 09:00:00 1.6 36 Sudoeste 53 Sudoeste 0 -- -- 91
2018-01-01 08:00:00 1.3 32 Sudoeste 49 Sudoeste 0 -- -- 92
2018-01-01 07:00:00 1.4 32 Sudoeste 44 Sudoeste 0 -- -- 91
2018-01-01 06:00:00 1.1 28 Sudoeste 50 Sudoeste 0 -- -- 94
2018-01-01 05:00:00 0.9 31 Sudoeste 45 Sudoeste 0 -- -- 99
2018-01-01 04:00:00 0.7 28 Sudoeste 48 Sudoeste 0 -- -- 100
2018-01-01 03:00:00 0.6 31 Sudoeste 42 Sudoeste 0 -- -- 100
2018-01-01 02:00:00 0.5 28 Sudoeste 40 Sudoeste 0 -- -- 99
2018-01-01 01:00:00 0.7 29 Sudoeste 50 Sudoeste 0 -- -- 97
2018-01-01 00:00:00 0.8 30 Sudoeste 45 Sudoeste 0 -- -- 97
2017-12-31 23:00:00 0.9 30 Sudoeste 41 Sudoeste 0 -- -- 94
2017-12-31 22:00:00 0.9 26 Oeste 51 Oeste 0 -- -- 90
2017-12-31 21:00:00 1 25 Oeste 48 Oeste 0.2 -- -- 97
2017-12-31 20:00:00 3 30 Oeste 47 Oeste 0.4 -- -- 100
2017-12-31 19:00:00 3.6 28 Oeste 49 Oeste 0 -- -- 100
2017-12-31 18:00:00 3.7 28 Oeste 47 Oeste 0.2 -- -- 100
2017-12-31 17:00:00 3.7 31 Sudoeste 66 Sudoeste 4 -- -- 100
2017-12-31 16:00:00 6.2 31 Sudoeste 46 Sudoeste 1.4 -- -- 98
2017-12-31 15:00:00 7.8 30 Sudoeste 67 Sudoeste 0 -- -- 81
2017-12-31 14:00:00 7.3 40 Sudoeste 60 Sudoeste 0 -- -- 80
2017-12-31 13:00:00 7.1 45 Sudoeste 68 Sudoeste 0 -- -- 82
2017-12-31 12:00:00 6.9 31 Sudoeste 48 Sudoeste 0 -- -- 85
2017-12-31 11:00:00 6.2 29 Sudoeste 47 Sudoeste 0 -- -- 89
2017-12-31 10:00:00 5.5 21 Sudoeste 34 Sudoeste 0 -- -- 94
2017-12-31 09:00:00 5.4 19 Sudoeste 33 Sudoeste 0 -- -- 94
2017-12-31 08:00:00 5.4 22 Sudoeste 35 Sudoeste 0 -- -- 95
2017-12-31 07:00:00 5.5 23 Sudoeste 33 Sudoeste 0 -- -- 96
2017-12-31 06:00:00 6 14 Sudoeste 20 Sudoeste 0 -- -- 94
2017-12-31 05:00:00 6 9 Sudoeste 17 Sudoeste 0 -- -- 95
2017-12-31 04:00:00 6.1 8 Sudoeste 19 Sudoeste 0 -- -- 94
2017-12-31 03:00:00 6.4 12 Sudoeste 18 Sudoeste 0 -- -- 93
2017-12-31 02:00:00 6.4 11 Sudoeste 19 Sudoeste 0 -- -- 94
2017-12-31 01:00:00 6.5 9 Sudoeste 14 Sudoeste 0 -- -- 94